Time;durP1;ratioP1;P1;durP2;ratioP2;P2;SDS_P1;SDS_P2;PMS_P1;PMS_P2;Temp;Humidity;BMP_temperature;BMP_pressure;BME280_temperature;BME280_humidity;BME280_pressure;Samples;Min_cycle;Max_cycle;Signal;HPM_P1;HPM_P2
2021/04/05 00:00:38;;;;;;;5.30;2.30;;;11.70;99.90;;;;;;5019740;28;20189;-67
2021/04/05 00:03:05;;;;;;;4.00;2.03;;;12.00;99.90;;;;;;5023850;28;20458;-66
2021/04/05 00:05:36;;;;;;;3.03;1.80;;;12.30;99.90;;;;;;5023303;28;20237;-69
2021/04/05 00:08:03;;;;;;;2.50;1.77;;;12.40;99.90;;;;;;5030265;28;20272;-68
2021/04/05 00:10:46;;;;;;;5.23;2.20;;;12.50;99.90;;;;;;5019355;28;20392;-68
2021/04/05 00:13:36;;;;;;;4.73;2.10;;;12.60;99.90;;;;;;5031193;27;20196;-68
2021/04/05 00:16:04;;;;;;;3.57;1.80;;;12.70;99.90;;;;;;5053451;27;20193;-68
2021/04/05 00:18:31;;;;;;;3.43;1.53;;;12.80;99.90;;;;;;5048771;27;20193;-68
2021/04/05 00:21:11;;;;;;;2.93;1.70;;;12.90;99.90;;;;;;5023111;27;20241;-68
2021/04/05 00:23:38;;;;;;;4.40;1.87;;;12.90;99.90;;;;;;5027838;28;20198;-68
2021/04/05 00:26:05;;;;;;;2.70;1.90;;;12.90;99.90;;;;;;5029844;27;20812;-69
2021/04/05 00:28:32;;;;;;;2.00;1.50;;;12.80;99.90;;;;;;5005681;28;20184;-68
2021/04/05 00:30:59;;;;;;;3.60;1.70;;;12.90;99.90;;;;;;5031502;28;20199;-66
2021/04/05 00:33:25;;;;;;;2.83;1.57;;;13.00;99.90;;;;;;5030899;28;20204;-69
2021/04/05 00:35:52;;;;;;;3.93;1.73;;;13.10;99.90;;;;;;5036507;27;20189;-68
2021/04/05 00:38:19;;;;;;;5.03;1.83;;;13.00;99.90;;;;;;5019693;28;20172;-67
2021/04/05 00:41:06;;;;;;;5.27;1.90;;;12.90;99.90;;;;;;5018731;28;20260;-69
2021/04/05 00:43:38;;;;;;;2.33;1.67;;;12.90;99.90;;;;;;5014672;28;20196;-69
2021/04/05 00:46:07;;;;;;;2.73;1.80;;;12.80;99.90;;;;;;5017896;28;20653;-68
2021/04/05 00:48:35;;;;;;;2.60;1.80;;;12.80;99.90;;;;;;5026646;28;20196;-69
2021/04/05 00:51:18;;;;;;;4.20;1.73;;;12.70;99.90;;;;;;5026970;27;20652;-69
2021/04/05 00:53:47;;;;;;;3.27;1.67;;;12.80;99.90;;;;;;5018648;28;20266;-69
2021/04/05 00:56:17;;;;;;;3.07;1.90;;;12.70;99.90;;;;;;5027458;28;20906;-69
2021/04/05 00:58:44;;;;;;;2.10;1.40;;;12.60;99.90;;;;;;5018618;28;20203;-68
2021/04/05 01:01:19;;;;;;;3.47;1.83;;;12.70;99.90;;;;;;5023400;28;20541;-68
2021/04/05 01:03:49;;;;;;;4.30;1.57;;;12.80;99.90;;;;;;5020431;28;20193;-68
2021/04/05 01:06:31;;;;;;;5.37;1.90;;;12.80;99.90;;;;;;5044285;27;20189;-68
2021/04/05 01:08:58;;;;;;;2.17;1.80;;;12.70;99.90;;;;;;5019313;28;20188;-68
2021/04/05 01:11:28;;;;;;;2.57;1.93;;;12.80;99.90;;;;;;5027037;27;20193;-69
2021/04/05 01:13:55;;;;;;;3.17;1.70;;;12.70;99.90;;;;;;5014328;28;20306;-69
2021/04/05 01:16:30;;;;;;;1.70;1.40;;;12.60;99.90;;;;;;5018220;28;20636;-68
2021/04/05 01:18:58;;;;;;;2.23;1.70;;;12.50;99.90;;;;;;5021533;28;20827;-68
2021/04/05 01:21:25;;;;;;;2.87;1.90;;;12.40;99.90;;;;;;5034345;28;20208;-69
2021/04/05 01:23:51;;;;;;;3.27;1.80;;;12.20;99.90;;;;;;5020115;28;20246;-68
2021/04/05 01:26:18;;;;;;;2.77;1.97;;;12.10;99.90;;;;;;5042459;27;20184;-68
2021/04/05 01:28:44;;;;;;;2.23;1.70;;;11.90;99.90;;;;;;5024078;28;20215;-67
2021/04/05 01:31:11;;;;;;;2.27;1.60;;;11.80;99.90;;;;;;5048241;27;20183;-68
2021/04/05 01:33:43;;;;;;;3.83;2.10;;;11.70;99.90;;;;;;5050090;27;20196;-68
2021/04/05 01:36:16;;;;;;;3.93;1.90;;;11.50;99.90;;;;;;5050107;27;20264;-67
2021/04/05 01:38:50;;;;;;;2.50;1.80;;;11.60;99.90;;;;;;5051240;27;20192;-68
2021/04/05 01:41:23;;;;;;;6.63;1.87;;;11.70;99.90;;;;;;5032906;27;20762;-67
2021/04/05 01:43:50;;;;;;;3.60;1.97;;;11.70;99.90;;;;;;5015053;27;20555;-68
2021/04/05 01:46:19;;;;;;;3.70;2.00;;;11.70;99.90;;;;;;5044088;27;20222;-68
2021/04/05 01:48:46;;;;;;;3.70;1.87;;;11.80;99.90;;;;;;5031137;27;20196;-69
2021/04/05 01:51:21;;;;;;;3.83;1.93;;;11.60;99.90;;;;;;5050388;27;20599;-68
2021/04/05 01:53:50;;;;;;;6.43;2.03;;;11.40;99.90;;;;;;5058704;27;20215;-69
2021/04/05 01:56:19;;;;;;;4.03;1.80;;;11.40;99.90;;;;;;5049969;27;20188;-69
2021/04/05 01:58:50;;;;;;;2.73;1.90;;;11.30;99.90;;;;;;5060974;27;20265;-69
2021/04/05 02:01:24;;;;;;;3.80;1.80;;;11.30;99.90;;;;;;5041009;27;20771;-69
2021/04/05 02:03:57;;;;;;;3.93;1.63;;;11.30;99.90;;;;;;5048419;27;20187;-69
2021/04/05 02:06:33;;;;;;;3.10;1.90;;;11.30;99.90;;;;;;5040037;27;20185;-68
2021/04/05 02:08:59;;;;;;;2.50;2.00;;;11.20;99.90;;;;;;5068721;27;20668;-68
2021/04/05 02:11:37;;;;;;;5.80;1.93;;;11.20;99.90;;;;;;5073835;27;20237;-67
2021/04/05 02:14:07;;;;;;;3.80;1.90;;;11.20;99.90;;;;;;5061844;27;20180;-68
2021/04/05 02:16:33;;;;;;;3.97;1.80;;;11.10;99.90;;;;;;5031057;27;20192;-68
2021/04/05 02:19:01;;;;;;;4.03;1.77;;;11.10;99.90;;;;;;5009920;27;20660;-68
2021/04/05 02:21:30;;;;;;;2.07;1.70;;;11.00;99.90;;;;;;5027144;27;20212;-67
2021/04/05 02:24:04;;;;;;;2.87;2.10;;;10.80;99.90;;;;;;5109091;27;20432;-68
2021/04/05 02:26:34;;;;;;;2.67;1.90;;;10.80;99.90;;;;;;5056376;27;20180;-68
2021/04/05 02:29:03;;;;;;;1.67;1.50;;;11.00;99.90;;;;;;5059964;27;20189;-68
2021/04/05 02:31:33;;;;;;;2.53;1.90;;;10.90;99.90;;;;;;5044490;27;20271;-67
2021/04/05 02:34:00;;;;;;;5.13;2.00;;;10.70;99.90;;;;;;5026530;27;20275;-68
2021/04/05 02:36:31;;;;;;;3.80;1.90;;;10.80;99.90;;;;;;5111597;27;20184;-68
2021/04/05 02:39:05;;;;;;;2.87;2.00;;;10.60;99.90;;;;;;5051098;27;20201;-68
2021/04/05 02:41:34;;;;;;;2.73;1.77;;;10.60;99.90;;;;;;5108656;27;20212;-67
2021/04/05 02:44:02;;;;;;;2.20;1.70;;;10.60;99.90;;;;;;5039925;27;20237;-68
2021/04/05 02:46:35;;;;;;;4.00;1.90;;;10.50;99.90;;;;;;5017114;27;20192;-66
2021/04/05 02:49:10;;;;;;;2.70;2.10;;;10.50;99.90;;;;;;5039715;28;20621;-67
2021/04/05 02:51:48;;;;;;;2.80;1.90;;;10.50;99.90;;;;;;5035887;27;20563;-67
2021/04/05 02:54:19;;;;;;;5.20;2.03;;;10.50;99.90;;;;;;5038078;27;20196;-67
2021/04/05 02:56:47;;;;;;;4.67;1.90;;;10.50;99.90;;;;;;5067764;27;20216;-68
2021/04/05 02:59:20;;;;;;;2.63;2.00;;;10.80;99.90;;;;;;5021244;27;20176;-68
2021/04/05 03:01:47;;;;;;;3.17;1.80;;;11.10;99.90;;;;;;5049284;27;20319;-69
2021/04/05 03:04:15;;;;;;;2.07;1.50;;;11.20;99.90;;;;;;5031599;27;20180;-68
2021/04/05 03:06:41;;;;;;;2.80;1.70;;;11.40;99.90;;;;;;5047206;27;20718;-67
2021/04/05 03:09:08;;;;;;;3.23;1.67;;;11.50;99.90;;;;;;5048438;27;20188;-69
2021/04/05 03:11:38;;;;;;;2.20;1.50;;;11.60;99.90;;;;;;5025851;27;20263;-68
2021/04/05 03:14:09;;;;;;;2.80;1.80;;;11.80;99.90;;;;;;5028684;27;20215;-68
2021/04/05 03:16:40;;;;;;;3.90;1.30;;;12.10;99.90;;;;;;5031957;27;20261;-69
2021/04/05 03:19:09;;;;;;;2.97;1.40;;;12.50;99.90;;;;;;5028282;28;20227;-68
2021/04/05 03:21:35;;;;;;;2.67;1.67;;;13.00;99.90;;;;;;5055980;27;20303;-68
2021/04/05 03:24:03;;;;;;;5.73;1.97;;;13.00;99.90;;;;;;5068828;27;20188;-70
2021/04/05 03:26:29;;;;;;;4.90;1.80;;;13.10;99.90;;;;;;5037734;28;20501;-70
2021/04/05 03:28:55;;;;;;;4.43;1.50;;;13.40;99.90;;;;;;5034925;28;20268;-70
2021/04/05 03:31:27;;;;;;;2.90;1.43;;;13.60;99.90;;;;;;5057838;28;20192;-67
2021/04/05 03:34:35;;;;;;;2.63;1.33;;;13.50;99.90;;;;;;5054102;28;20257;-69
2021/04/05 03:37:08;;;;;;;2.63;1.47;;;13.40;99.90;;;;;;5035520;28;20237;-69
2021/04/05 03:39:36;;;;;;;2.00;1.40;;;13.40;99.90;;;;;;5046325;27;20184;-69
2021/04/05 03:42:31;;;;;;;4.57;1.80;;;13.50;99.90;;;;;;5047120;27;20301;-68
2021/04/05 03:45:40;;;;;;;2.47;1.80;;;13.70;99.90;;;;;;5047919;27;20192;-69
2021/04/05 03:48:28;;;;;;;4.47;1.37;;;13.90;99.90;;;;;;5022982;27;20269;-69
2021/04/05 03:51:23;;;;;;;2.63;1.57;;;14.00;99.90;;;;;;5045705;27;20207;-67
2021/04/05 03:54:09;;;;;;;5.37;1.53;;;13.90;99.90;;;;;;5040127;27;20201;-70
2021/04/05 03:56:53;;;;;;;1.80;1.47;;;13.90;99.90;;;;;;5040654;27;20188;-67
2021/04/05 03:59:27;;;;;;;3.10;1.43;;;13.70;99.90;;;;;;5049826;27;20264;-67
2021/04/05 04:02:24;;;;;;;2.27;1.53;;;13.60;99.90;;;;;;5036078;27;20869;-68
2021/04/05 04:05:44;;;;;;;3.33;1.70;;;13.70;99.90;;;;;;5050640;27;20192;-68
2021/04/05 04:07:59;;;;;;;1.93;1.50;;;13.80;99.90;;;;;;5028794;27;20242;-68
2021/04/05 04:10:28;;;;;;;2.37;1.60;;;13.80;99.90;;;;;;5027647;28;20215;-68
2021/04/05 04:12:57;;;;;;;2.40;1.50;;;13.70;99.90;;;;;;5052133;27;20193;-68
2021/04/05 04:15:26;;;;;;;3.20;1.43;;;13.50;99.90;;;;;;5049039;27;20679;-67
2021/04/05 04:17:53;;;;;;;3.00;1.70;;;13.50;99.90;;;;;;5033301;27;20755;-68
2021/04/05 04:20:20;;;;;;;4.23;2.03;;;13.50;99.90;;;;;;5062784;27;20212;-68
2021/04/05 04:22:48;;;;;;;2.87;1.87;;;13.60;99.90;;;;;;5058880;27;20726;-69
2021/04/05 04:25:16;;;;;;;3.27;1.73;;;13.30;99.90;;;;;;5037883;27;20683;-68
2021/04/05 04:27:46;;;;;;;3.23;1.83;;;13.00;99.90;;;;;;5014577;28;20195;-70
2021/04/05 04:30:33;;;;;;;2.17;1.67;;;12.90;99.90;;;;;;5046682;27;20165;-69
2021/04/05 04:33:08;;;;;;;5.73;2.20;;;12.80;99.90;;;;;;5067624;27;20192;-70
2021/04/05 04:35:38;;;;;;;4.10;2.30;;;12.70;99.90;;;;;;5022266;27;20180;-70
2021/04/05 04:38:05;;;;;;;3.97;2.13;;;12.70;99.90;;;;;;5057518;27;20184;-70
2021/04/05 04:40:35;;;;;;;4.40;2.30;;;12.60;99.90;;;;;;5029804;27;20209;-70
2021/04/05 04:43:05;;;;;;;4.90;2.40;;;12.50;99.90;;;;;;5037104;27;20208;-70
2021/04/05 04:45:32;;;;;;;3.77;2.13;;;12.50;99.90;;;;;;5048167;27;20188;-70
2021/04/05 04:47:58;;;;;;;3.73;2.33;;;12.40;99.90;;;;;;5042027;27;20192;-70
2021/04/05 04:50:27;;;;;;;3.80;2.27;;;12.40;99.90;;;;;;5026999;27;20591;-70
2021/04/05 04:52:54;;;;;;;4.43;2.80;;;12.50;99.90;;;;;;5033183;27;20176;-70
2021/04/05 04:55:22;;;;;;;5.30;2.80;;;12.30;99.90;;;;;;5053456;27;20189;-70
2021/04/05 04:57:49;;;;;;;3.60;2.47;;;12.30;99.90;;;;;;5016698;27;20236;-69
2021/04/05 05:00:16;;;;;;;7.00;2.87;;;12.40;99.90;;;;;;5043169;27;20563;-69
2021/04/05 05:02:44;;;;;;;7.83;3.20;;;12.30;99.90;;;;;;5057146;27;20216;-69
2021/04/05 05:05:14;;;;;;;5.93;3.33;;;12.40;99.90;;;;;;5031308;27;21005;-69
2021/04/05 05:07:41;;;;;;;8.47;3.57;;;12.50;99.90;;;;;;5069816;27;20414;-69
2021/04/05 05:10:11;;;;;;;3.83;2.80;;;12.50;99.90;;;;;;5034266;27;20566;-69
2021/04/05 05:12:40;;;;;;;8.80;3.20;;;12.50;99.90;;;;;;5027986;27;20192;-69
2021/04/05 05:15:11;;;;;;;5.93;3.07;;;12.60;99.90;;;;;;5025597;27;20702;-69
2021/04/05 05:17:46;;;;;;;6.93;3.33;;;12.70;99.90;;;;;;5024126;27;20190;-69
2021/04/05 05:20:19;;;;;;;8.43;3.40;;;12.80;99.90;;;;;;5036232;27;20196;-69
2021/04/05 05:22:53;;;;;;;4.07;2.83;;;12.90;99.90;;;;;;5041703;27;20264;-69
2021/04/05 05:25:22;;;;;;;9.63;3.00;;;13.00;99.90;;;;;;5059302;27;20186;-70
2021/04/05 05:28:02;;;;;;;5.93;3.10;;;13.10;99.90;;;;;;5054132;27;20192;-69
2021/04/05 05:30:29;;;;;;;7.87;3.37;;;13.30;99.90;;;;;;5061590;27;20200;-70
2021/04/05 05:32:59;;;;;;;4.50;3.13;;;13.30;99.90;;;;;;5021388;28;20191;-68
2021/04/05 05:35:26;;;;;;;5.27;2.90;;;13.20;99.90;;;;;;5034884;27;20180;-68
2021/04/05 05:37:57;;;;;;;8.13;3.20;;;13.20;99.90;;;;;;5035643;27;20192;-69
2021/04/05 05:40:26;;;;;;;6.77;3.00;;;13.20;99.90;;;;;;5045737;27;20235;-70
2021/04/05 05:43:10;;;;;;;4.97;2.80;;;13.30;99.90;;;;;;5034915;27;20560;-68
2021/04/05 05:46:14;;;;;;;8.10;4.83;;;13.30;99.90;;;;;;5030813;27;20263;-69
2021/04/05 05:49:28;;;;;;;7.37;3.07;;;13.40;99.90;;;;;;5021372;27;20223;-69
2021/04/05 05:52:02;;;;;;;6.43;2.80;;;13.50;99.90;;;;;;5033141;28;20363;-69
2021/04/05 05:54:57;;;;;;;7.30;3.20;;;13.50;99.90;;;;;;5045949;27;20249;-69
2021/04/05 05:57:49;;;;;;;3.97;2.90;;;13.60;99.90;;;;;;5034333;27;20849;-69
2021/04/05 06:00:28;;;;;;;7.20;3.20;;;13.60;99.90;;;;;;5051054;27;20186;-70
2021/04/05 06:03:22;;;;;;;5.00;2.67;;;13.60;99.90;;;;;;5027119;27;20227;-71
2021/04/05 06:06:00;;;;;;;5.50;2.70;;;13.60;99.90;;;;;;5051941;27;20189;-70
2021/04/05 06:08:32;;;;;;;5.10;2.80;;;13.70;99.90;;;;;;5031621;27;20207;-69
2021/04/05 06:11:41;;;;;;;5.33;2.90;;;13.70;99.90;;;;;;5020254;28;20363;-70
2021/04/05 06:14:36;;;;;;;7.53;3.00;;;14.00;99.90;;;;;;5046160;27;20192;-69
2021/04/05 06:17:19;;;;;;;5.80;3.37;;;14.10;99.90;;;;;;5029713;27;20196;-69
2021/04/05 06:19:53;;;;;;;5.43;3.67;;;14.00;99.90;;;;;;5056950;27;20206;-69
2021/04/05 06:22:57;;;;;;;7.53;3.80;;;13.90;99.90;;;;;;5036104;27;20223;-69
2021/04/05 06:25:56;;;;;;;6.27;3.40;;;14.00;99.90;;;;;;5032292;27;20187;-69
2021/04/05 06:29:02;;;;;;;6.30;3.10;;;14.00;99.90;;;;;;5038772;27;20180;-68
2021/04/05 06:32:05;;;;;;;6.60;3.20;;;14.10;99.90;;;;;;5043378;27;20675;-68
2021/04/05 06:34:34;;;;;;;7.63;3.20;;;14.20;99.90;;;;;;5034870;27;20176;-69
2021/04/05 06:37:22;;;;;;;8.40;3.40;;;14.10;99.90;;;;;;5048709;27;20180;-70
2021/04/05 06:39:57;;;;;;;5.70;2.90;;;14.30;99.90;;;;;;5027312;27;20940;-68
2021/04/05 06:42:45;;;;;;;5.17;2.97;;;14.30;99.90;;;;;;5047782;27;20606;-68
2021/04/05 06:45:48;;;;;;;3.90;2.67;;;14.40;99.90;;;;;;5053310;27;20241;-68
2021/04/05 06:48:52;;;;;;;5.67;2.67;;;14.40;99.90;;;;;;5057842;27;20795;-68
2021/04/05 06:51:37;;;;;;;4.83;2.80;;;14.40;99.90;;;;;;5029005;27;20739;-68
2021/04/05 06:54:28;;;;;;;4.83;3.10;;;14.50;99.90;;;;;;5025453;27;20211;-68
2021/04/05 06:57:22;;;;;;;6.63;2.83;;;14.60;99.90;;;;;;5022234;28;20195;-67
2021/04/05 07:00:52;;;;;;;7.67;3.27;;;14.70;99.90;;;;;;5051943;27;20185;-68
2021/04/05 07:03:33;;;;;;;8.33;3.47;;;14.80;99.90;;;;;;5054816;27;20231;-69
2021/04/05 07:06:13;;;;;;;5.50;3.60;;;14.80;99.90;;;;;;5043335;27;20511;-68
2021/04/05 07:08:45;;;;;;;6.93;3.50;;;14.80;99.90;;;;;;5046680;27;20203;-68
2021/04/05 07:11:22;;;;;;;8.07;4.10;;;14.90;99.90;;;;;;5040108;27;20212;-68
2021/04/05 07:14:30;;;;;;;6.77;4.20;;;15.00;99.90;;;;;;5052744;27;20211;-69
2021/04/05 07:17:14;;;;;;;10.43;4.30;;;15.20;99.90;;;;;;5041310;27;20682;-69
2021/04/05 07:20:21;;;;;;;7.00;4.50;;;15.30;99.90;;;;;;5040645;28;20333;-69
2021/04/05 07:23:27;;;;;;;8.50;4.97;;;15.40;99.90;;;;;;5032980;27;20272;-69
2021/04/05 07:26:14;;;;;;;9.23;5.57;;;15.40;99.90;;;;;;4993055;28;20667;-69
2021/04/05 07:29:00;;;;;;;8.87;5.70;;;15.40;99.90;;;;;;5043764;28;20260;-69
2021/04/05 07:31:57;;;;;;;8.83;5.33;;;15.40;99.90;;;;;;5053560;28;20272;-69
2021/04/05 07:34:35;;;;;;;8.97;5.03;;;15.40;99.90;;;;;;5041002;28;20192;-68
2021/04/05 07:37:28;;;;;;;10.90;4.50;;;15.40;99.90;;;;;;5060462;28;21384;-68
2021/04/05 07:40:38;;;;;;;4.63;3.80;;;15.40;99.90;;;;;;5032969;28;20218;-68
2021/04/05 07:43:15;;;;;;;5.73;3.67;;;15.60;99.90;;;;;;5054866;28;20230;-69
2021/04/05 07:46:03;;;;;;;9.23;4.00;;;15.70;99.90;;;;;;5030644;28;20188;-69
2021/04/05 07:48:34;;;;;;;5.77;3.80;;;15.60;99.90;;;;;;5022159;28;20191;-70
2021/04/05 07:51:18;;;;;;;8.80;4.03;;;15.60;99.90;;;;;;5022499;28;20203;-69
2021/04/05 07:53:58;;;;;;;10.07;3.90;;;15.70;99.90;;;;;;5030853;28;20184;-70
2021/04/05 07:56:53;;;;;;;7.33;3.40;;;15.60;99.90;;;;;;5044641;27;20220;-70
2021/04/05 07:59:49;;;;;;;6.83;3.30;;;15.60;99.90;;;;;;5035037;28;20251;-69
2021/04/05 08:03:03;;;;;;;6.63;3.20;;;15.60;99.90;;;;;;5057293;28;20212;-69
2021/04/05 08:05:55;;;;;;;4.80;3.00;;;15.70;99.90;;;;;;5048664;28;20697;-69
2021/04/05 08:08:47;;;;;;;5.03;2.70;;;15.80;99.90;;;;;;5043799;28;20663;-69
2021/04/05 08:11:53;;;;;;;5.67;2.67;;;15.90;99.90;;;;;;5036516;27;20269;-69
2021/04/05 08:15:02;;;;;;;3.50;2.27;;;16.00;99.90;;;;;;5009688;28;20204;-69
2021/04/05 08:17:51;;;;;;;7.33;2.97;;;16.10;99.90;;;;;;5030502;28;20199;-69
2021/04/05 08:20:40;;;;;;;4.60;2.80;;;16.30;99.90;;;;;;5036642;28;20204;-69
2021/04/05 08:23:52;;;;;;;3.67;2.70;;;16.40;99.90;;;;;;5028612;28;20270;-67
2021/04/05 08:26:40;;;;;;;4.93;2.30;;;16.50;99.90;;;;;;5029159;27;20188;-68
2021/04/05 08:29:58;;;;;;;5.43;2.47;;;16.60;99.90;;;;;;5053087;27;20657;-67
2021/04/05 08:32:45;;;;;;;3.73;1.87;;;16.80;99.90;;;;;;5043966;27;20249;-68
2021/04/05 08:35:40;;;;;;;5.13;2.00;;;16.90;99.90;;;;;;5044991;27;20263;-68
2021/04/05 08:38:48;;;;;;;5.10;1.83;;;17.20;99.90;;;;;;5001865;28;20203;-67
2021/04/05 08:41:48;;;;;;;3.80;1.83;;;17.20;99.90;;;;;;5024804;27;20203;-69
2021/04/05 08:44:17;;;;;;;5.40;1.90;;;17.30;99.90;;;;;;5024439;28;20223;-68
2021/04/05 08:46:48;;;;;;;4.77;2.00;;;17.20;99.90;;;;;;5025914;28;20224;-68
2021/04/05 08:49:22;;;;;;;4.03;1.90;;;17.40;99.90;;;;;;5021558;28;20196;-69
2021/04/05 08:51:54;;;;;;;2.53;1.67;;;17.50;99.90;;;;;;5030595;28;20200;-69
2021/04/05 08:54:29;;;;;;;2.37;1.67;;;17.60;99.90;;;;;;5021537;28;20196;-68
2021/04/05 08:57:06;;;;;;;3.37;1.80;;;18.00;99.90;;;;;;5017290;28;20184;-68
2021/04/05 08:59:45;;;;;;;3.77;1.73;;;18.10;99.90;;;;;;5038767;27;20249;-68
2021/04/05 09:02:35;;;;;;;5.03;2.00;;;18.10;99.90;;;;;;5022052;28;20376;-69
2021/04/05 09:05:04;;;;;;;4.80;2.10;;;18.10;99.90;;;;;;5020131;28;20520;-69
2021/04/05 09:08:02;;;;;;;2.87;1.90;;;18.00;99.90;;;;;;5022627;28;20184;-69
2021/04/05 09:10:40;;;;;;;3.87;1.83;;;18.00;99.90;;;;;;5035098;27;20549;-68
2021/04/05 09:13:21;;;;;;;3.33;2.10;;;17.90;99.90;;;;;;5020630;28;20279;-68
2021/04/05 09:16:54;;;;;;;5.27;1.87;;;18.00;99.90;;;;;;5023064;28;20196;-70
2021/04/05 09:19:53;;;;;;;8.97;2.30;;;18.00;99.90;;;;;;5032736;27;20184;-68
2021/04/05 09:22:49;;;;;;;4.27;1.80;;;18.20;99.90;;;;;;5056675;27;20192;-67
2021/04/05 09:26:31;;;;;;;2.57;1.50;;;18.30;99.90;;;;;;5030374;27;20192;-69
2021/04/05 09:29:27;;;;;;;5.23;1.73;;;18.30;99.90;;;;;;5060303;28;20272;-68
2021/04/05 09:32:20;;;;;;;5.13;2.00;;;18.40;99.90;;;;;;5062486;28;20201;-69
2021/04/05 09:35:36;;;;;;;5.87;2.10;;;18.40;99.90;;;;;;5029553;27;20188;-69
2021/04/05 09:38:30;;;;;;;6.23;1.80;;;18.60;99.90;;;;;;5057495;27;20284;-68
2021/04/05 09:41:32;;;;;;;6.30;2.00;;;18.70;99.90;;;;;;5039614;27;20204;-70
2021/04/05 09:44:29;;;;;;;4.40;1.80;;;18.70;99.90;;;;;;5037252;27;20869;-69
2021/04/05 09:47:12;;;;;;;6.20;1.90;;;18.80;99.90;;;;;;5038887;27;20189;-69
2021/04/05 09:50:22;;;;;;;4.53;2.00;;;19.00;99.90;;;;;;5021942;27;20239;-67
2021/04/05 09:53:36;;;;;;;8.43;3.30;;;19.00;99.90;;;;;;5049720;27;20215;-70
2021/04/05 09:56:22;;;;;;;9.90;3.77;;;19.10;99.90;;;;;;5029455;27;21369;-68
2021/04/05 09:59:08;;;;;;;5.47;3.07;;;19.00;99.90;;;;;;5021327;27;20188;-71
2021/04/05 10:01:37;;;;;;;8.37;3.30;;;19.00;99.90;;;;;;5023447;27;20663;-68
2021/04/05 10:04:10;;;;;;;4.73;3.07;;;18.90;99.90;;;;;;5057622;27;20189;-70
2021/04/05 10:06:39;;;;;;;7.13;3.33;;;18.80;99.90;;;;;;5021701;27;21766;-68
2021/04/05 10:09:08;;;;;;;7.00;3.70;;;18.80;99.90;;;;;;5021244;28;20267;-69
2021/04/05 10:11:44;;;;;;;4.77;3.10;;;18.70;99.90;;;;;;5047375;27;20719;-69
2021/04/05 10:14:21;;;;;;;7.20;3.13;;;18.80;99.90;;;;;;5047866;27;20291;-69
2021/04/05 10:16:53;;;;;;;6.23;3.20;;;18.90;99.90;;;;;;5032691;27;20225;-70
2021/04/05 10:19:38;;;;;;;6.03;3.20;;;18.80;99.90;;;;;;5047717;27;20180;-70
2021/04/05 10:22:15;;;;;;;7.00;3.47;;;18.60;99.90;;;;;;5043681;27;20216;-67
2021/04/05 10:24:46;;;;;;;6.37;3.27;;;18.70;99.90;;;;;;5021001;27;20663;-70
2021/04/05 10:27:17;;;;;;;6.97;3.00;;;18.80;99.90;;;;;;5049372;27;20195;-70
2021/04/05 10:29:51;;;;;;;7.53;3.50;;;18.80;99.90;;;;;;5014110;28;20660;-70
2021/04/05 10:32:28;;;;;;;18.33;6.80;;;18.80;99.90;;;;;;5026245;27;20295;-69
2021/04/05 10:35:01;;;;;;;12.43;3.87;;;18.60;99.90;;;;;;5054586;27;20275;-68
2021/04/05 10:37:35;;;;;;;16.93;5.63;;;18.50;99.90;;;;;;5040288;27;20185;-68
2021/04/05 10:40:03;;;;;;;12.77;4.23;;;18.40;99.90;;;;;;5023953;28;20213;-68
2021/04/05 10:42:53;;;;;;;10.53;4.60;;;18.40;99.90;;;;;;5050786;27;20205;-68
2021/04/05 10:45:29;;;;;;;30.60;9.33;;;18.40;99.90;;;;;;5024419;27;20185;-69
2021/04/05 10:48:08;;;;;;;17.77;5.73;;;18.40;99.90;;;;;;5051465;27;20185;-70
2021/04/05 10:50:46;;;;;;;6.57;4.47;;;18.40;99.90;;;;;;5054904;27;20783;-70
2021/04/05 10:53:19;;;;;;;30.53;8.63;;;18.40;99.90;;;;;;5044203;27;20237;-69
2021/04/05 10:56:00;;;;;;;9.77;4.90;;;18.50;99.90;;;;;;5045428;27;20236;-70
2021/04/05 10:58:35;;;;;;;9.53;4.50;;;18.40;99.90;;;;;;5051712;27;20278;-70
2021/04/05 11:01:06;;;;;;;10.23;4.23;;;18.40;99.90;;;;;;5047079;27;20211;-70
2021/04/05 11:03:40;;;;;;;32.77;7.70;;;18.40;99.90;;;;;;5051829;27;20208;-69
2021/04/05 11:06:11;;;;;;;18.77;5.70;;;18.40;99.90;;;;;;5025690;28;20723;-69
2021/04/05 11:08:40;;;;;;;35.53;11.33;;;18.30;99.90;;;;;;5038602;27;20807;-69
2021/04/05 11:11:22;;;;;;;15.90;6.20;;;18.30;99.90;;;;;;5061041;27;20195;-70
2021/04/05 11:13:53;;;;;;;27.57;7.63;;;18.20;99.90;;;;;;5036866;27;20218;-70
2021/04/05 11:16:24;;;;;;;25.13;7.10;;;18.20;99.90;;;;;;5052161;27;20188;-70
2021/04/05 11:19:00;;;;;;;7.30;5.03;;;18.20;99.90;;;;;;5043966;27;20191;-69
2021/04/05 11:21:41;;;;;;;9.73;4.80;;;18.30;99.90;;;;;;5044111;28;20184;-70
2021/04/05 11:24:12;;;;;;;11.80;4.60;;;18.30;99.90;;;;;;5046951;27;20257;-68
2021/04/05 11:26:42;;;;;;;25.57;7.40;;;18.30;99.90;;;;;;5044576;28;20188;-70
2021/04/05 11:29:14;;;;;;;23.83;7.93;;;18.40;99.90;;;;;;5030368;28;20191;-69
2021/04/05 11:31:44;;;;;;;25.63;8.23;;;18.40;99.90;;;;;;5023504;28;20244;-69
2021/04/05 11:34:14;;;;;;;35.50;9.87;;;18.50;99.90;;;;;;5035615;28;20260;-68
2021/04/05 11:36:48;;;;;;;10.57;4.77;;;18.50;99.90;;;;;;5046492;28;20767;-69
2021/04/05 11:39:21;;;;;;;13.37;5.13;;;18.50;99.90;;;;;;5056551;28;20187;-68
2021/04/05 11:41:54;;;;;;;56.90;13.43;;;18.50;99.90;;;;;;5035943;28;20192;-69
2021/04/05 11:44:28;;;;;;;6.67;4.50;;;18.50;99.90;;;;;;5039852;27;20180;-70
2021/04/05 11:46:58;;;;;;;11.50;5.27;;;18.50;99.90;;;;;;5047181;27;20187;-69
2021/04/05 11:49:33;;;;;;;11.37;4.97;;;18.60;99.90;;;;;;5044324;28;20196;-69
2021/04/05 11:52:11;;;;;;;9.27;5.60;;;18.60;99.90;;;;;;5044864;28;20180;-69
2021/04/05 11:54:50;;;;;;;7.23;5.03;;;18.60;99.90;;;;;;5042925;28;20660;-69
2021/04/05 11:57:42;;;;;;;6.63;4.53;;;18.70;99.90;;;;;;5053370;28;20560;-68
2021/04/05 12:00:12;;;;;;;9.03;5.13;;;18.80;99.90;;;;;;5028690;27;20193;-68
2021/04/05 12:03:11;;;;;;;10.10;4.70;;;18.80;99.90;;;;;;5018056;27;20244;-69
2021/04/05 12:05:55;;;;;;;10.40;5.73;;;18.60;99.90;;;;;;5050839;27;20228;-71
2021/04/05 12:09:05;;;;;;;8.73;4.93;;;18.80;99.90;;;;;;5037747;27;20216;-70
2021/04/05 12:11:43;;;;;;;9.90;4.90;;;18.70;99.90;;;;;;5040397;27;20533;-71
2021/04/05 12:14:22;;;;;;;16.57;5.07;;;18.70;99.90;;;;;;5035135;27;20172;-67
2021/04/05 12:16:55;;;;;;;8.67;4.40;;;18.80;99.90;;;;;;5037356;27;20289;-70
2021/04/05 12:19:43;;;;;;;7.90;4.43;;;18.80;99.90;;;;;;5031035;27;20193;-70
2021/04/05 12:22:11;;;;;;;7.73;4.40;;;18.80;99.90;;;;;;5047394;27;20211;-70
2021/04/05 12:24:45;;;;;;;8.07;4.03;;;18.90;99.90;;;;;;5065078;27;20201;-69
2021/04/05 12:27:13;;;;;;;8.10;4.53;;;18.90;99.90;;;;;;5041162;27;20179;-70
2021/04/05 12:29:44;;;;;;;8.57;4.43;;;19.00;99.90;;;;;;5055043;27;20188;-69
2021/04/05 12:32:17;;;;;;;8.40;5.00;;;19.00;99.90;;;;;;5034804;27;20782;-70
2021/04/05 12:34:47;;;;;;;8.83;5.47;;;18.90;99.90;;;;;;5027618;27;20192;-70
2021/04/05 12:37:20;;;;;;;10.90;4.80;;;18.90;99.90;;;;;;5043110;27;20193;-70
2021/04/05 12:39:52;;;;;;;11.43;5.40;;;18.80;99.90;;;;;;5035691;27;20307;-69
2021/04/05 12:42:20;;;;;;;7.17;4.87;;;18.70;99.90;;;;;;5056663;27;20222;-70
2021/04/05 12:44:56;;;;;;;10.60;5.50;;;18.70;99.90;;;;;;5054669;27;20229;-69
2021/04/05 12:47:35;;;;;;;11.33;4.90;;;18.70;99.90;;;;;;5040071;27;20196;-70
2021/04/05 12:50:14;;;;;;;6.30;4.63;;;18.70;99.90;;;;;;5061070;27;20929;-70
2021/04/05 12:52:43;;;;;;;13.27;4.90;;;18.70;99.90;;;;;;5044784;27;20280;-70
2021/04/05 12:55:19;;;;;;;6.40;4.90;;;18.80;99.90;;;;;;5037466;27;20652;-70
2021/04/05 12:57:46;;;;;;;5.83;4.60;;;18.60;99.90;;;;;;5035794;27;20194;-69
2021/04/05 13:00:23;;;;;;;7.53;4.47;;;18.50;99.90;;;;;;5042232;27;20196;-70
2021/04/05 13:03:00;;;;;;;6.83;3.83;;;18.60;99.90;;;;;;5025467;27;20220;-69
2021/04/05 13:05:37;;;;;;;11.13;5.00;;;18.70;99.90;;;;;;5035291;27;20272;-69
2021/04/05 13:08:22;;;;;;;6.43;3.80;;;18.80;99.90;;;;;;5027141;27;20176;-70
2021/04/05 13:11:15;;;;;;;10.70;4.43;;;18.90;99.90;;;;;;5043395;27;20210;-70
2021/04/05 13:13:57;;;;;;;10.00;4.37;;;19.00;99.90;;;;;;5017796;27;20200;-69
2021/04/05 13:16:52;;;;;;;8.53;4.30;;;19.00;99.90;;;;;;5044352;27;20850;-70
2021/04/05 13:19:25;;;;;;;9.07;4.10;;;19.10;99.90;;;;;;5026132;27;20694;-68
2021/04/05 13:21:54;;;;;;;7.20;4.13;;;19.20;99.90;;;;;;5049207;27;20290;-70
2021/04/05 13:24:34;;;;;;;8.33;4.30;;;19.20;99.90;;;;;;5040998;27;20903;-67
2021/04/05 13:27:06;;;;;;;9.90;4.60;;;19.00;99.90;;;;;;5038296;27;20191;-70
2021/04/05 13:29:36;;;;;;;8.47;4.77;;;18.90;99.90;;;;;;5066513;27;20643;-67
2021/04/05 13:32:08;;;;;;;9.37;4.80;;;18.70;99.90;;;;;;5040824;27;20192;-70
2021/04/05 13:34:40;;;;;;;9.17;4.70;;;18.70;99.90;;;;;;5038680;27;20180;-68
2021/04/05 13:37:12;;;;;;;9.30;4.57;;;18.60;99.90;;;;;;5027652;27;20271;-70
2021/04/05 13:39:44;;;;;;;7.60;4.80;;;18.60;99.90;;;;;;5029053;27;20200;-70
2021/04/05 13:42:25;;;;;;;8.17;4.60;;;18.60;99.90;;;;;;5047787;27;20719;-70
2021/04/05 13:45:03;;;;;;;8.73;4.97;;;18.60;99.90;;;;;;5039933;27;20192;-69